sensor_id;sensor_type;location;lat;lon;timestamp;P1;durP1;ratioP1;P2;durP2;ratioP2
12302;SDS011;6214;48.012;7.862;2023-03-14T00:02:26;13.27;;;0.50;;
12302;SDS011;6214;48.012;7.862;2023-03-14T00:04:54;13.50;;;0.50;;
12302;SDS011;6214;48.012;7.862;2023-03-14T00:07:22;13.30;;;0.50;;
12302;SDS011;6214;48.012;7.862;2023-03-14T00:09:51;13.30;;;0.50;;
12302;SDS011;6214;48.012;7.862;2023-03-14T00:12:18;13.20;;;0.50;;
12302;SDS011;6214;48.012;7.862;2023-03-14T00:14:45;13.20;;;0.50;;
12302;SDS011;6214;48.012;7.862;2023-03-14T00:17:12;13.30;;;0.50;;
12302;SDS011;6214;48.012;7.862;2023-03-14T00:19:40;13.20;;;0.50;;
12302;SDS011;6214;48.012;7.862;2023-03-14T00:22:07;13.30;;;0.50;;
12302;SDS011;6214;48.012;7.862;2023-03-14T00:24:33;13.30;;;0.50;;
12302;SDS011;6214;48.012;7.862;2023-03-14T00:27:00;14.30;;;0.60;;
12302;SDS011;6214;48.012;7.862;2023-03-14T00:29:27;13.90;;;0.80;;
12302;SDS011;6214;48.012;7.862;2023-03-14T00:31:54;13.50;;;0.60;;
12302;SDS011;6214;48.012;7.862;2023-03-14T00:34:21;13.35;;;0.60;;
12302;SDS011;6214;48.012;7.862;2023-03-14T00:36:48;13.30;;;0.60;;
12302;SDS011;6214;48.012;7.862;2023-03-14T00:39:15;13.30;;;0.50;;
12302;SDS011;6214;48.012;7.862;2023-03-14T00:41:42;13.70;;;0.60;;
12302;SDS011;6214;48.012;7.862;2023-03-14T00:44:09;13.48;;;0.63;;
12302;SDS011;6214;48.012;7.862;2023-03-14T00:46:36;13.40;;;0.50;;
12302;SDS011;6214;48.012;7.862;2023-03-14T00:49:05;13.50;;;0.50;;
12302;SDS011;6214;48.012;7.862;2023-03-14T00:51:32;14.00;;;0.70;;
12302;SDS011;6214;48.012;7.862;2023-03-14T00:54:00;13.40;;;0.50;;
12302;SDS011;6214;48.012;7.862;2023-03-14T00:56:27;13.60;;;0.60;;
12302;SDS011;6214;48.012;7.862;2023-03-14T00:58:54;13.33;;;0.50;;
12302;SDS011;6214;48.012;7.862;2023-03-14T01:01:22;13.60;;;0.50;;
12302;SDS011;6214;48.012;7.862;2023-03-14T01:03:52;13.55;;;0.70;;
12302;SDS011;6214;48.012;7.862;2023-03-14T01:06:24;13.60;;;0.60;;
12302;SDS011;6214;48.012;7.862;2023-03-14T01:08:53;13.50;;;0.60;;
12302;SDS011;6214;48.012;7.862;2023-03-14T01:13:49;13.40;;;0.50;;
12302;SDS011;6214;48.012;7.862;2023-03-14T01:16:17;13.50;;;0.60;;
12302;SDS011;6214;48.012;7.862;2023-03-14T01:18:45;13.73;;;0.63;;
12302;SDS011;6214;48.012;7.862;2023-03-14T01:21:20;13.40;;;0.50;;
12302;SDS011;6214;48.012;7.862;2023-03-14T01:23:52;13.50;;;0.70;;
12302;SDS011;6214;48.012;7.862;2023-03-14T01:26:22;13.60;;;0.60;;
12302;SDS011;6214;48.012;7.862;2023-03-14T01:28:51;13.40;;;0.50;;
12302;SDS011;6214;48.012;7.862;2023-03-14T01:31:19;13.73;;;0.60;;
12302;SDS011;6214;48.012;7.862;2023-03-14T01:33:46;14.15;;;0.70;;
12302;SDS011;6214;48.012;7.862;2023-03-14T01:36:13;13.80;;;0.80;;
12302;SDS011;6214;48.012;7.862;2023-03-14T01:38:41;13.60;;;0.60;;
12302;SDS011;6214;48.012;7.862;2023-03-14T01:41:11;13.40;;;0.60;;
12302;SDS011;6214;48.012;7.862;2023-03-14T01:43:44;13.50;;;0.50;;
12302;SDS011;6214;48.012;7.862;2023-03-14T01:46:18;13.90;;;0.50;;
12302;SDS011;6214;48.012;7.862;2023-03-14T01:51:29;13.70;;;0.70;;
12302;SDS011;6214;48.012;7.862;2023-03-14T01:57:13;13.50;;;0.63;;
12302;SDS011;6214;48.012;7.862;2023-03-14T01:59:48;13.90;;;0.70;;
12302;SDS011;6214;48.012;7.862;2023-03-14T02:02:22;14.27;;;0.70;;
12302;SDS011;6214;48.012;7.862;2023-03-14T02:04:52;13.57;;;0.70;;
12302;SDS011;6214;48.012;7.862;2023-03-14T02:07:25;14.80;;;0.90;;
12302;SDS011;6214;48.012;7.862;2023-03-14T02:09:58;14.10;;;0.60;;
12302;SDS011;6214;48.012;7.862;2023-03-14T02:12:26;13.40;;;0.50;;
12302;SDS011;6214;48.012;7.862;2023-03-14T02:14:54;14.35;;;0.70;;
12302;SDS011;6214;48.012;7.862;2023-03-14T02:17:21;13.77;;;0.60;;
12302;SDS011;6214;48.012;7.862;2023-03-14T02:22:42;13.40;;;0.50;;
12302;SDS011;6214;48.012;7.862;2023-03-14T02:28:33;13.80;;;0.70;;
12302;SDS011;6214;48.012;7.862;2023-03-14T02:31:00;14.10;;;0.60;;
12302;SDS011;6214;48.012;7.862;2023-03-14T02:33:26;13.50;;;0.60;;
12302;SDS011;6214;48.012;7.862;2023-03-14T02:36:01;13.50;;;0.57;;
12302;SDS011;6214;48.012;7.862;2023-03-14T02:38:32;13.67;;;0.57;;
12302;SDS011;6214;48.012;7.862;2023-03-14T02:41:06;16.00;;;0.70;;
12302;SDS011;6214;48.012;7.862;2023-03-14T02:43:33;13.60;;;0.70;;
12302;SDS011;6214;48.012;7.862;2023-03-14T02:46:00;14.02;;;0.60;;
12302;SDS011;6214;48.012;7.862;2023-03-14T02:50:58;13.60;;;0.60;;
12302;SDS011;6214;48.012;7.862;2023-03-14T02:53:31;14.43;;;0.70;;
12302;SDS011;6214;48.012;7.862;2023-03-14T02:56:00;13.80;;;0.60;;
12302;SDS011;6214;48.012;7.862;2023-03-14T02:58:27;13.63;;;0.70;;
12302;SDS011;6214;48.012;7.862;2023-03-14T03:00:54;13.90;;;0.80;;
12302;SDS011;6214;48.012;7.862;2023-03-14T03:03:21;14.77;;;0.77;;
12302;SDS011;6214;48.012;7.862;2023-03-14T03:05:52;13.50;;;0.50;;
12302;SDS011;6214;48.012;7.862;2023-03-14T03:08:20;13.40;;;0.60;;
12302;SDS011;6214;48.012;7.862;2023-03-14T03:10:49;13.60;;;0.60;;
12302;SDS011;6214;48.012;7.862;2023-03-14T03:13:17;14.18;;;0.60;;
12302;SDS011;6214;48.012;7.862;2023-03-14T03:15:44;13.70;;;0.50;;
12302;SDS011;6214;48.012;7.862;2023-03-14T03:18:12;13.77;;;0.93;;
12302;SDS011;6214;48.012;7.862;2023-03-14T03:20:38;13.57;;;0.60;;
12302;SDS011;6214;48.012;7.862;2023-03-14T03:23:05;13.60;;;0.60;;
12302;SDS011;6214;48.012;7.862;2023-03-14T03:25:34;14.35;;;0.60;;
12302;SDS011;6214;48.012;7.862;2023-03-14T03:28:01;13.80;;;0.60;;
12302;SDS011;6214;48.012;7.862;2023-03-14T03:30:28;13.50;;;0.60;;
12302;SDS011;6214;48.012;7.862;2023-03-14T03:32:55;14.30;;;1.00;;
12302;SDS011;6214;48.012;7.862;2023-03-14T03:35:22;13.80;;;0.70;;
12302;SDS011;6214;48.012;7.862;2023-03-14T03:37:49;14.63;;;1.10;;
12302;SDS011;6214;48.012;7.862;2023-03-14T03:40:16;16.00;;;1.00;;
12302;SDS011;6214;48.012;7.862;2023-03-14T03:42:43;15.00;;;1.10;;
12302;SDS011;6214;48.012;7.862;2023-03-14T03:45:10;15.63;;;1.10;;
12302;SDS011;6214;48.012;7.862;2023-03-14T03:47:36;16.20;;;1.23;;
12302;SDS011;6214;48.012;7.862;2023-03-14T03:50:03;15.80;;;1.20;;
12302;SDS011;6214;48.012;7.862;2023-03-14T03:52:31;15.90;;;1.17;;
12302;SDS011;6214;48.012;7.862;2023-03-14T03:54:57;15.35;;;1.20;;
12302;SDS011;6214;48.012;7.862;2023-03-14T03:57:24;15.23;;;1.25;;
12302;SDS011;6214;48.012;7.862;2023-03-14T03:59:51;14.75;;;1.10;;
12302;SDS011;6214;48.012;7.862;2023-03-14T04:02:18;14.15;;;0.95;;
12302;SDS011;6214;48.012;7.862;2023-03-14T04:04:45;15.05;;;0.80;;
12302;SDS011;6214;48.012;7.862;2023-03-14T04:07:12;15.40;;;1.10;;
12302;SDS011;6214;48.012;7.862;2023-03-14T04:09:40;14.80;;;1.00;;
12302;SDS011;6214;48.012;7.862;2023-03-14T04:12:07;15.10;;;0.93;;
12302;SDS011;6214;48.012;7.862;2023-03-14T04:14:34;14.75;;;1.00;;
12302;SDS011;6214;48.012;7.862;2023-03-14T04:17:00;14.30;;;0.70;;
12302;SDS011;6214;48.012;7.862;2023-03-14T04:19:27;14.80;;;1.00;;
12302;SDS011;6214;48.012;7.862;2023-03-14T04:21:54;14.53;;;0.80;;
12302;SDS011;6214;48.012;7.862;2023-03-14T04:24:21;14.57;;;0.98;;
12302;SDS011;6214;48.012;7.862;2023-03-14T04:26:48;13.80;;;0.70;;
12302;SDS011;6214;48.012;7.862;2023-03-14T04:29:15;13.90;;;0.70;;
12302;SDS011;6214;48.012;7.862;2023-03-14T04:31:42;14.50;;;0.90;;
12302;SDS011;6214;48.012;7.862;2023-03-14T04:34:09;14.37;;;0.90;;
12302;SDS011;6214;48.012;7.862;2023-03-14T04:36:36;14.70;;;1.00;;
12302;SDS011;6214;48.012;7.862;2023-03-14T04:39:05;14.02;;;0.73;;
12302;SDS011;6214;48.012;7.862;2023-03-14T04:41:32;13.93;;;0.70;;
12302;SDS011;6214;48.012;7.862;2023-03-14T04:43:59;13.70;;;0.70;;
12302;SDS011;6214;48.012;7.862;2023-03-14T04:46:26;14.45;;;0.80;;
12302;SDS011;6214;48.012;7.862;2023-03-14T04:48:52;14.40;;;1.00;;
12302;SDS011;6214;48.012;7.862;2023-03-14T04:51:20;14.50;;;0.70;;
12302;SDS011;6214;48.012;7.862;2023-03-14T04:53:49;14.10;;;0.70;;
12302;SDS011;6214;48.012;7.862;2023-03-14T04:56:16;14.85;;;1.10;;
12302;SDS011;6214;48.012;7.862;2023-03-14T04:58:43;14.15;;;0.70;;
12302;SDS011;6214;48.012;7.862;2023-03-14T05:01:10;14.20;;;0.80;;
12302;SDS011;6214;48.012;7.862;2023-03-14T05:03:37;14.20;;;0.77;;
12302;SDS011;6214;48.012;7.862;2023-03-14T05:06:04;14.30;;;0.85;;
12302;SDS011;6214;48.012;7.862;2023-03-14T05:08:31;14.38;;;0.75;;
12302;SDS011;6214;48.012;7.862;2023-03-14T05:10:58;14.27;;;0.80;;
12302;SDS011;6214;48.012;7.862;2023-03-14T05:13:25;14.07;;;0.80;;
12302;SDS011;6214;48.012;7.862;2023-03-14T05:15:52;14.80;;;0.98;;
12302;SDS011;6214;48.012;7.862;2023-03-14T05:18:21;13.82;;;0.70;;
12302;SDS011;6214;48.012;7.862;2023-03-14T05:20:50;14.00;;;0.80;;
12302;SDS011;6214;48.012;7.862;2023-03-14T05:23:18;14.93;;;0.80;;
12302;SDS011;6214;48.012;7.862;2023-03-14T05:25:45;14.40;;;0.75;;
12302;SDS011;6214;48.012;7.862;2023-03-14T05:28:12;13.57;;;0.63;;
12302;SDS011;6214;48.012;7.862;2023-03-14T05:30:39;14.23;;;0.63;;
12302;SDS011;6214;48.012;7.862;2023-03-14T05:33:06;13.52;;;0.60;;
12302;SDS011;6214;48.012;7.862;2023-03-14T05:35:33;14.50;;;0.90;;
12302;SDS011;6214;48.012;7.862;2023-03-14T05:38:00;14.60;;;0.70;;
12302;SDS011;6214;48.012;7.862;2023-03-14T05:40:27;14.23;;;0.60;;
12302;SDS011;6214;48.012;7.862;2023-03-14T05:42:54;13.85;;;0.73;;
12302;SDS011;6214;48.012;7.862;2023-03-14T05:45:21;14.10;;;0.70;;
12302;SDS011;6214;48.012;7.862;2023-03-14T05:47:48;13.90;;;0.80;;
12302;SDS011;6214;48.012;7.862;2023-03-14T05:50:15;13.70;;;0.70;;
12302;SDS011;6214;48.012;7.862;2023-03-14T05:52:42;13.40;;;0.60;;
12302;SDS011;6214;48.012;7.862;2023-03-14T05:55:08;13.93;;;0.70;;
12302;SDS011;6214;48.012;7.862;2023-03-14T05:57:35;14.20;;;0.90;;
12302;SDS011;6214;48.012;7.862;2023-03-14T06:00:02;13.73;;;0.82;;
12302;SDS011;6214;48.012;7.862;2023-03-14T06:02:30;14.20;;;0.70;;
12302;SDS011;6214;48.012;7.862;2023-03-14T06:04:57;14.20;;;0.90;;
12302;SDS011;6214;48.012;7.862;2023-03-14T06:07:23;14.40;;;0.60;;
12302;SDS011;6214;48.012;7.862;2023-03-14T06:09:53;14.30;;;0.70;;
12302;SDS011;6214;48.012;7.862;2023-03-14T06:12:20;14.40;;;0.70;;
12302;SDS011;6214;48.012;7.862;2023-03-14T06:14:46;14.35;;;0.63;;
12302;SDS011;6214;48.012;7.862;2023-03-14T06:17:14;13.60;;;0.60;;
12302;SDS011;6214;48.012;7.862;2023-03-14T06:19:41;13.93;;;0.73;;
12302;SDS011;6214;48.012;7.862;2023-03-14T06:22:08;13.63;;;0.70;;
12302;SDS011;6214;48.012;7.862;2023-03-14T06:24:35;13.82;;;0.80;;
12302;SDS011;6214;48.012;7.862;2023-03-14T06:27:02;13.60;;;0.60;;
12302;SDS011;6214;48.012;7.862;2023-03-14T06:29:29;13.93;;;0.80;;
12302;SDS011;6214;48.012;7.862;2023-03-14T06:31:56;13.60;;;0.50;;
12302;SDS011;6214;48.012;7.862;2023-03-14T06:34:23;13.60;;;0.70;;
12302;SDS011;6214;48.012;7.862;2023-03-14T06:36:50;14.45;;;0.70;;
12302;SDS011;6214;48.012;7.862;2023-03-14T06:39:17;13.90;;;0.70;;
12302;SDS011;6214;48.012;7.862;2023-03-14T06:41:44;15.00;;;0.80;;
12302;SDS011;6214;48.012;7.862;2023-03-14T06:44:11;14.30;;;0.80;;
12302;SDS011;6214;48.012;7.862;2023-03-14T06:46:38;13.60;;;0.70;;
12302;SDS011;6214;48.012;7.862;2023-03-14T06:49:05;13.80;;;0.80;;
12302;SDS011;6214;48.012;7.862;2023-03-14T06:51:32;14.27;;;0.77;;
12302;SDS011;6214;48.012;7.862;2023-03-14T06:53:59;14.10;;;0.70;;
12302;SDS011;6214;48.012;7.862;2023-03-14T06:56:26;14.18;;;0.60;;
12302;SDS011;6214;48.012;7.862;2023-03-14T06:58:53;13.90;;;0.82;;
12302;SDS011;6214;48.012;7.862;2023-03-14T07:01:24;13.57;;;0.60;;
12302;SDS011;6214;48.012;7.862;2023-03-14T07:03:56;14.20;;;0.90;;
12302;SDS011;6214;48.012;7.862;2023-03-14T07:06:23;13.77;;;0.60;;
12302;SDS011;6214;48.012;7.862;2023-03-14T07:08:51;13.90;;;0.70;;
12302;SDS011;6214;48.012;7.862;2023-03-14T07:11:18;13.70;;;0.60;;
12302;SDS011;6214;48.012;7.862;2023-03-14T07:13:45;13.60;;;0.60;;
12302;SDS011;6214;48.012;7.862;2023-03-14T07:16:12;13.90;;;0.70;;
12302;SDS011;6214;48.012;7.862;2023-03-14T07:18:39;14.00;;;0.60;;
12302;SDS011;6214;48.012;7.862;2023-03-14T07:21:06;14.10;;;0.70;;
12302;SDS011;6214;48.012;7.862;2023-03-14T07:23:35;13.80;;;0.70;;
12302;SDS011;6214;48.012;7.862;2023-03-14T07:26:02;13.90;;;0.70;;
12302;SDS011;6214;48.012;7.862;2023-03-14T07:28:29;14.18;;;0.98;;
12302;SDS011;6214;48.012;7.862;2023-03-14T07:30:56;13.60;;;0.70;;
12302;SDS011;6214;48.012;7.862;2023-03-14T07:33:23;14.00;;;0.70;;
12302;SDS011;6214;48.012;7.862;2023-03-14T07:35:50;13.50;;;0.60;;
12302;SDS011;6214;48.012;7.862;2023-03-14T07:38:17;15.68;;;0.93;;
12302;SDS011;6214;48.012;7.862;2023-03-14T07:40:48;13.70;;;0.60;;
12302;SDS011;6214;48.012;7.862;2023-03-14T07:43:15;13.63;;;0.70;;
12302;SDS011;6214;48.012;7.862;2023-03-14T07:45:45;13.70;;;0.60;;
12302;SDS011;6214;48.012;7.862;2023-03-14T07:48:16;13.95;;;0.60;;
12302;SDS011;6214;48.012;7.862;2023-03-14T07:50:43;14.02;;;0.65;;
12302;SDS011;6214;48.012;7.862;2023-03-14T07:53:10;14.48;;;0.70;;
12302;SDS011;6214;48.012;7.862;2023-03-14T07:55:37;13.70;;;0.68;;
12302;SDS011;6214;48.012;7.862;2023-03-14T07:58:06;14.87;;;0.80;;
12302;SDS011;6214;48.012;7.862;2023-03-14T08:00:32;14.23;;;0.90;;
12302;SDS011;6214;48.012;7.862;2023-03-14T08:02:59;14.48;;;0.90;;
12302;SDS011;6214;48.012;7.862;2023-03-14T08:05:26;14.00;;;0.80;;
12302;SDS011;6214;48.012;7.862;2023-03-14T08:07:53;14.60;;;0.90;;
12302;SDS011;6214;48.012;7.862;2023-03-14T08:10:20;14.85;;;0.80;;
12302;SDS011;6214;48.012;7.862;2023-03-14T08:12:49;15.15;;;0.90;;
12302;SDS011;6214;48.012;7.862;2023-03-14T08:15:16;14.10;;;0.70;;
12302;SDS011;6214;48.012;7.862;2023-03-14T08:17:43;14.05;;;0.70;;
12302;SDS011;6214;48.012;7.862;2023-03-14T08:20:10;13.80;;;0.70;;
12302;SDS011;6214;48.012;7.862;2023-03-14T08:22:39;13.70;;;0.70;;
12302;SDS011;6214;48.012;7.862;2023-03-14T08:25:06;14.23;;;1.00;;
12302;SDS011;6214;48.012;7.862;2023-03-14T08:27:33;14.10;;;0.70;;
12302;SDS011;6214;48.012;7.862;2023-03-14T08:30:00;14.60;;;1.00;;
12302;SDS011;6214;48.012;7.862;2023-03-14T08:32:27;13.68;;;0.73;;
12302;SDS011;6214;48.012;7.862;2023-03-14T08:34:54;14.50;;;0.80;;
12302;SDS011;6214;48.012;7.862;2023-03-14T08:37:21;13.70;;;0.65;;
12302;SDS011;6214;48.012;7.862;2023-03-14T08:39:52;13.80;;;0.90;;
12302;SDS011;6214;48.012;7.862;2023-03-14T08:42:20;13.80;;;0.80;;
12302;SDS011;6214;48.012;7.862;2023-03-14T08:44:47;14.20;;;0.75;;
12302;SDS011;6214;48.012;7.862;2023-03-14T08:47:14;13.70;;;0.70;;
12302;SDS011;6214;48.012;7.862;2023-03-14T08:49:41;14.70;;;0.80;;
12302;SDS011;6214;48.012;7.862;2023-03-14T08:52:07;14.80;;;0.90;;
12302;SDS011;6214;48.012;7.862;2023-03-14T08:54:34;14.10;;;0.90;;
12302;SDS011;6214;48.012;7.862;2023-03-14T08:57:01;14.20;;;0.80;;
12302;SDS011;6214;48.012;7.862;2023-03-14T08:59:28;14.00;;;0.90;;
12302;SDS011;6214;48.012;7.862;2023-03-14T09:01:55;14.63;;;0.80;;
12302;SDS011;6214;48.012;7.862;2023-03-14T09:04:22;14.65;;;1.10;;
12302;SDS011;6214;48.012;7.862;2023-03-14T09:06:49;14.00;;;0.80;;
12302;SDS011;6214;48.012;7.862;2023-03-14T09:09:16;14.70;;;0.90;;
12302;SDS011;6214;48.012;7.862;2023-03-14T09:11:43;13.98;;;0.85;;
12302;SDS011;6214;48.012;7.862;2023-03-14T09:14:10;14.15;;;0.95;;
12302;SDS011;6214;48.012;7.862;2023-03-14T09:16:37;15.00;;;0.90;;
12302;SDS011;6214;48.012;7.862;2023-03-14T09:19:04;14.23;;;0.95;;
12302;SDS011;6214;48.012;7.862;2023-03-14T09:21:31;14.63;;;2.00;;
12302;SDS011;6214;48.012;7.862;2023-03-14T09:23:58;14.00;;;1.05;;
12302;SDS011;6214;48.012;7.862;2023-03-14T09:26:26;13.90;;;0.80;;
12302;SDS011;6214;48.012;7.862;2023-03-14T09:28:53;13.80;;;0.80;;
12302;SDS011;6214;48.012;7.862;2023-03-14T09:31:22;14.85;;;0.70;;
12302;SDS011;6214;48.012;7.862;2023-03-14T09:33:49;14.50;;;0.70;;
12302;SDS011;6214;48.012;7.862;2023-03-14T09:36:16;13.70;;;0.70;;
12302;SDS011;6214;48.012;7.862;2023-03-14T09:38:43;13.50;;;0.70;;
12302;SDS011;6214;48.012;7.862;2023-03-14T09:41:29;14.40;;;0.70;;
12302;SDS011;6214;48.012;7.862;2023-03-14T09:46:33;13.90;;;0.60;;
12302;SDS011;6214;48.012;7.862;2023-03-14T09:49:02;13.50;;;0.60;;
12302;SDS011;6214;48.012;7.862;2023-03-14T09:51:48;13.98;;;0.70;;
12302;SDS011;6214;48.012;7.862;2023-03-14T09:55:04;14.30;;;1.00;;
12302;SDS011;6214;48.012;7.862;2023-03-14T09:57:32;13.50;;;0.60;;
12302;SDS011;6214;48.012;7.862;2023-03-14T10:00:04;13.77;;;0.70;;
12302;SDS011;6214;48.012;7.862;2023-03-14T10:02:41;13.70;;;0.63;;
12302;SDS011;6214;48.012;7.862;2023-03-14T10:05:16;13.48;;;0.60;;
12302;SDS011;6214;48.012;7.862;2023-03-14T10:07:45;13.30;;;0.50;;
12302;SDS011;6214;48.012;7.862;2023-03-14T10:10:20;13.60;;;0.60;;
12302;SDS011;6214;48.012;7.862;2023-03-14T10:12:55;13.52;;;0.60;;
12302;SDS011;6214;48.012;7.862;2023-03-14T10:15:34;13.50;;;0.50;;
12302;SDS011;6214;48.012;7.862;2023-03-14T10:18:03;13.40;;;0.55;;
12302;SDS011;6214;48.012;7.862;2023-03-14T10:20:39;13.60;;;0.60;;
12302;SDS011;6214;48.012;7.862;2023-03-14T10:25:39;13.40;;;0.60;;
12302;SDS011;6214;48.012;7.862;2023-03-14T10:28:23;13.40;;;0.60;;
12302;SDS011;6214;48.012;7.862;2023-03-14T10:30:50;13.50;;;0.50;;
12302;SDS011;6214;48.012;7.862;2023-03-14T10:33:20;13.70;;;0.50;;
12302;SDS011;6214;48.012;7.862;2023-03-14T10:36:03;13.30;;;0.50;;
12302;SDS011;6214;48.012;7.862;2023-03-14T10:38:33;13.60;;;0.60;;
12302;SDS011;6214;48.012;7.862;2023-03-14T10:41:03;13.40;;;0.50;;
12302;SDS011;6214;48.012;7.862;2023-03-14T10:43:45;13.40;;;0.50;;
12302;SDS011;6214;48.012;7.862;2023-03-14T10:46:18;13.30;;;0.50;;
12302;SDS011;6214;48.012;7.862;2023-03-14T10:48:46;13.30;;;0.50;;
12302;SDS011;6214;48.012;7.862;2023-03-14T10:51:19;14.30;;;0.60;;
12302;SDS011;6214;48.012;7.862;2023-03-14T10:56:38;13.40;;;0.60;;
12302;SDS011;6214;48.012;7.862;2023-03-14T10:59:13;13.40;;;0.50;;
12302;SDS011;6214;48.012;7.862;2023-03-14T11:01:41;13.70;;;0.60;;
12302;SDS011;6214;48.012;7.862;2023-03-14T11:21:12;13.30;;;0.47;;
12302;SDS011;6214;48.012;7.862;2023-03-14T11:24:03;13.70;;;0.60;;
12302;SDS011;6214;48.012;7.862;2023-03-14T11:29:28;13.40;;;0.60;;
12302;SDS011;6214;48.012;7.862;2023-03-14T11:32:04;13.90;;;0.70;;
12302;SDS011;6214;48.012;7.862;2023-03-14T11:34:40;14.13;;;0.68;;
12302;SDS011;6214;48.012;7.862;2023-03-14T11:37:17;14.80;;;0.52;;
12302;SDS011;6214;48.012;7.862;2023-03-14T11:40:15;14.70;;;1.40;;
12302;SDS011;6214;48.012;7.862;2023-03-14T11:42:58;14.40;;;0.80;;
12302;SDS011;6214;48.012;7.862;2023-03-14T11:45:34;14.30;;;0.70;;
12302;SDS011;6214;48.012;7.862;2023-03-14T11:48:17;14.80;;;0.73;;
12302;SDS011;6214;48.012;7.862;2023-03-14T11:50:47;14.15;;;0.70;;
12302;SDS011;6214;48.012;7.862;2023-03-14T11:53:19;13.70;;;0.60;;
12302;SDS011;6214;48.012;7.862;2023-03-14T11:55:56;13.60;;;0.60;;
12302;SDS011;6214;48.012;7.862;2023-03-14T12:00:53;14.60;;;0.70;;
12302;SDS011;6214;48.012;7.862;2023-03-14T12:03:39;13.73;;;0.70;;
12302;SDS011;6214;48.012;7.862;2023-03-14T12:06:13;14.20;;;0.60;;
12302;SDS011;6214;48.012;7.862;2023-03-14T12:09:03;13.93;;;0.70;;
12302;SDS011;6214;48.012;7.862;2023-03-14T12:11:50;13.60;;;0.70;;
12302;SDS011;6214;48.012;7.862;2023-03-14T12:14:26;16.70;;;2.70;;
12302;SDS011;6214;48.012;7.862;2023-03-14T12:17:05;13.77;;;0.60;;
12302;SDS011;6214;48.012;7.862;2023-03-14T12:19:45;14.10;;;0.70;;
12302;SDS011;6214;48.012;7.862;2023-03-14T12:24:56;14.27;;;1.10;;
12302;SDS011;6214;48.012;7.862;2023-03-14T12:35:39;14.38;;;1.10;;
12302;SDS011;6214;48.012;7.862;2023-03-14T12:43:53;14.68;;;1.30;;
12302;SDS011;6214;48.012;7.862;2023-03-14T12:46:22;14.10;;;0.80;;
12302;SDS011;6214;48.012;7.862;2023-03-14T12:48:50;14.50;;;1.20;;
12302;SDS011;6214;48.012;7.862;2023-03-14T12:51:34;14.68;;;0.90;;
12302;SDS011;6214;48.012;7.862;2023-03-14T12:54:13;14.10;;;0.80;;
12302;SDS011;6214;48.012;7.862;2023-03-14T12:59:33;13.85;;;0.80;;
12302;SDS011;6214;48.012;7.862;2023-03-14T13:02:10;14.70;;;0.80;;
12302;SDS011;6214;48.012;7.862;2023-03-14T13:10:20;14.40;;;0.90;;
12302;SDS011;6214;48.012;7.862;2023-03-14T13:15:58;13.80;;;0.85;;
12302;SDS011;6214;48.012;7.862;2023-03-14T13:18:34;15.05;;;1.50;;
12302;SDS011;6214;48.012;7.862;2023-03-14T13:21:23;14.10;;;0.90;;
12302;SDS011;6214;48.012;7.862;2023-03-14T13:24:33;13.90;;;0.90;;
12302;SDS011;6214;48.012;7.862;2023-03-14T13:26:55;14.53;;;0.80;;
12302;SDS011;6214;48.012;7.862;2023-03-14T13:29:32;14.07;;;0.80;;
12302;SDS011;6214;48.012;7.862;2023-03-14T13:32:00;14.02;;;0.80;;
12302;SDS011;6214;48.012;7.862;2023-03-14T13:34:29;13.70;;;0.80;;
12302;SDS011;6214;48.012;7.862;2023-03-14T13:37:00;14.20;;;0.90;;
12302;SDS011;6214;48.012;7.862;2023-03-14T13:39:28;14.75;;;0.80;;
12302;SDS011;6214;48.012;7.862;2023-03-14T13:41:59;13.70;;;0.70;;
12302;SDS011;6214;48.012;7.862;2023-03-14T13:44:29;13.90;;;0.80;;
12302;SDS011;6214;48.012;7.862;2023-03-14T13:46:58;14.30;;;1.00;;
12302;SDS011;6214;48.012;7.862;2023-03-14T13:49:28;13.70;;;0.90;;
12302;SDS011;6214;48.012;7.862;2023-03-14T13:51:58;14.50;;;0.93;;
12302;SDS011;6214;48.012;7.862;2023-03-14T13:54:25;14.50;;;1.07;;
12302;SDS011;6214;48.012;7.862;2023-03-14T13:57:03;14.10;;;0.80;;
12302;SDS011;6214;48.012;7.862;2023-03-14T13:59:32;14.20;;;0.85;;
12302;SDS011;6214;48.012;7.862;2023-03-14T14:02:01;13.70;;;0.70;;
12302;SDS011;6214;48.012;7.862;2023-03-14T14:04:35;15.00;;;1.00;;
12302;SDS011;6214;48.012;7.862;2023-03-14T14:07:10;13.80;;;0.90;;
12302;SDS011;6214;48.012;7.862;2023-03-14T14:09:46;14.10;;;0.90;;
12302;SDS011;6214;48.012;7.862;2023-03-14T14:12:23;13.90;;;0.88;;
12302;SDS011;6214;48.012;7.862;2023-03-14T14:14:59;14.40;;;1.00;;
12302;SDS011;6214;48.012;7.862;2023-03-14T14:17:32;15.50;;;1.33;;
12302;SDS011;6214;48.012;7.862;2023-03-14T14:20:51;14.07;;;0.90;;
12302;SDS011;6214;48.012;7.862;2023-03-14T14:23:09;14.80;;;1.20;;
12302;SDS011;6214;48.012;7.862;2023-03-14T14:25:38;14.90;;;1.60;;
12302;SDS011;6214;48.012;7.862;2023-03-14T14:31:03;15.43;;;2.00;;
12302;SDS011;6214;48.012;7.862;2023-03-14T14:33:46;16.25;;;2.00;;
12302;SDS011;6214;48.012;7.862;2023-03-14T14:36:36;15.30;;;1.60;;
12302;SDS011;6214;48.012;7.862;2023-03-14T14:39:15;16.55;;;2.50;;
12302;SDS011;6214;48.012;7.862;2023-03-14T14:41:48;16.50;;;2.53;;
12302;SDS011;6214;48.012;7.862;2023-03-14T14:44:18;15.95;;;1.90;;
12302;SDS011;6214;48.012;7.862;2023-03-14T14:46:55;15.90;;;1.52;;
12302;SDS011;6214;48.012;7.862;2023-03-14T14:49:27;15.50;;;1.30;;
12302;SDS011;6214;48.012;7.862;2023-03-14T14:52:02;15.80;;;1.80;;
12302;SDS011;6214;48.012;7.862;2023-03-14T14:54:46;15.30;;;1.53;;
12302;SDS011;6214;48.012;7.862;2023-03-14T14:57:18;15.70;;;1.60;;
12302;SDS011;6214;48.012;7.862;2023-03-14T14:59:48;16.40;;;1.80;;
12302;SDS011;6214;48.012;7.862;2023-03-14T15:02:38;15.30;;;1.60;;
12302;SDS011;6214;48.012;7.862;2023-03-14T15:05:19;15.73;;;1.60;;
12302;SDS011;6214;48.012;7.862;2023-03-14T15:07:49;15.57;;;1.70;;
12302;SDS011;6214;48.012;7.862;2023-03-14T15:10:17;15.40;;;1.40;;
12302;SDS011;6214;48.012;7.862;2023-03-14T15:12:46;15.90;;;1.40;;
12302;SDS011;6214;48.012;7.862;2023-03-14T15:15:14;15.43;;;1.40;;
12302;SDS011;6214;48.012;7.862;2023-03-14T15:17:41;16.95;;;1.73;;
12302;SDS011;6214;48.012;7.862;2023-03-14T15:20:12;14.70;;;1.20;;
12302;SDS011;6214;48.012;7.862;2023-03-14T15:22:42;14.88;;;1.10;;
12302;SDS011;6214;48.012;7.862;2023-03-14T15:25:09;15.20;;;1.30;;
12302;SDS011;6214;48.012;7.862;2023-03-14T15:27:56;15.30;;;1.00;;
12302;SDS011;6214;48.012;7.862;2023-03-14T15:30:23;15.50;;;1.10;;
12302;SDS011;6214;48.012;7.862;2023-03-14T15:32:51;15.98;;;1.10;;
12302;SDS011;6214;48.012;7.862;2023-03-14T15:35:18;15.98;;;1.40;;
12302;SDS011;6214;48.012;7.862;2023-03-14T15:37:45;16.20;;;1.40;;
12302;SDS011;6214;48.012;7.862;2023-03-14T15:40:12;15.25;;;1.10;;
12302;SDS011;6214;48.012;7.862;2023-03-14T15:42:40;15.27;;;1.23;;
12302;SDS011;6214;48.012;7.862;2023-03-14T15:45:08;14.30;;;1.20;;
12302;SDS011;6214;48.012;7.862;2023-03-14T15:47:35;14.95;;;1.20;;
12302;SDS011;6214;48.012;7.862;2023-03-14T15:50:02;14.35;;;1.10;;
12302;SDS011;6214;48.012;7.862;2023-03-14T15:52:30;14.98;;;1.10;;
12302;SDS011;6214;48.012;7.862;2023-03-14T15:54:57;14.55;;;1.17;;
12302;SDS011;6214;48.012;7.862;2023-03-14T15:57:24;15.82;;;1.40;;
12302;SDS011;6214;48.012;7.862;2023-03-14T15:59:51;14.73;;;1.10;;
12302;SDS011;6214;48.012;7.862;2023-03-14T16:02:18;14.85;;;1.17;;
12302;SDS011;6214;48.012;7.862;2023-03-14T16:04:45;14.50;;;1.00;;
12302;SDS011;6214;48.012;7.862;2023-03-14T16:07:12;14.93;;;1.20;;
12302;SDS011;6214;48.012;7.862;2023-03-14T16:09:38;15.65;;;1.50;;
12302;SDS011;6214;48.012;7.862;2023-03-14T16:12:05;16.00;;;1.30;;
12302;SDS011;6214;48.012;7.862;2023-03-14T16:14:35;14.73;;;1.10;;
12302;SDS011;6214;48.012;7.862;2023-03-14T16:17:02;14.90;;;1.20;;
12302;SDS011;6214;48.012;7.862;2023-03-14T16:19:29;14.93;;;1.20;;
12302;SDS011;6214;48.012;7.862;2023-03-14T16:21:57;15.90;;;1.60;;
12302;SDS011;6214;48.012;7.862;2023-03-14T16:24:24;16.03;;;1.53;;